Time,TemperatureF,DewpointF,PressureIn,WindDirection,WindDirectionDegrees,WindSpeedMPH,WindSpeedGustMPH,Humidity,HourlyPrecipIn,Conditions,Clouds,dailyrainin,SoftwareType,DateUTC
2013-02-10 00:00:00,41.6,15.3,30.08,NNE,31,0.0,0.0,34,0.00,,,0.00,Wunderground v.1.15,2013-02-10 05:00:00,
2013-02-10 00:10:00,41.5,15.8,30.07,NNE,31,0.0,0.0,35,0.00,,,0.00,Wunderground v.1.15,2013-02-10 05:10:00,
2013-02-10 00:15:00,41.3,15.7,30.07,NNE,31,0.0,0.0,35,0.00,,,0.00,Wunderground v.1.15,2013-02-10 05:15:00,
2013-02-10 00:20:00,41.3,16.3,30.06,NNE,31,0.0,0.0,36,0.00,,,0.00,Wunderground v.1.15,2013-02-10 05:20:00,
2013-02-10 00:30:00,41.1,17.4,30.07,NNE,31,0.0,0.0,38,0.00,,,0.00,Wunderground v.1.15,2013-02-10 05:30:00,
2013-02-10 00:40:00,40.3,17.3,30.06,NNE,31,0.0,0.0,39,0.00,,,0.00,Wunderground v.1.15,2013-02-10 05:40:00,
2013-02-10 00:50:00,40.2,17.2,30.07,NNE,31,0.0,0.0,39,0.00,,,0.00,Wunderground v.1.15,2013-02-10 05:50:00,
2013-02-10 01:00:00,40.3,17.9,30.07,NNE,31,0.0,0.0,40,0.00,,,0.00,Wunderground v.1.15,2013-02-10 06:00:00,
2013-02-10 01:05:00,40.3,17.9,30.06,NNE,31,0.0,0.0,40,0.00,,,0.00,Wunderground v.1.15,2013-02-10 06:05:00,
2013-02-10 01:10:00,40.3,18.4,30.06,NNE,31,0.0,0.0,41,0.00,,,0.00,Wunderground v.1.15,2013-02-10 06:10:00,
2013-02-10 01:20:00,40.6,19.3,30.06,NNE,31,0.0,0.0,42,0.00,,,0.00,Wunderground v.1.15,2013-02-10 06:20:00,
2013-02-10 01:30:00,40.6,19.3,30.06,NNE,31,0.0,0.0,42,0.00,,,0.00,Wunderground v.1.15,2013-02-10 06:30:00,
2013-02-10 01:40:00,40.6,19.3,30.06,NNE,31,0.0,0.0,42,0.00,,,0.00,Wunderground v.1.15,2013-02-10 06:40:00,
2013-02-10 01:50:00,40.5,19.2,30.05,NNE,31,0.0,0.0,42,0.00,,,0.00,Wunderground v.1.15,2013-02-10 06:50:00,
2013-02-10 01:55:00,40.3,18.4,30.06,NNE,31,0.0,0.0,41,0.00,,,0.00,Wunderground v.1.15,2013-02-10 06:55:00,
2013-02-10 02:05:00,40.3,18.4,30.07,NNE,31,0.0,0.0,41,0.00,,,0.00,Wunderground v.1.15,2013-02-10 07:05:00,
2013-02-10 02:10:00,40.2,17.8,30.07,NNE,31,0.0,0.0,40,0.00,,,0.00,Wunderground v.1.15,2013-02-10 07:10:00,
2013-02-10 02:20:00,40.1,17.1,30.07,NNE,31,0.0,0.0,39,0.00,,,0.00,Wunderground v.1.15,2013-02-10 07:20:00,
2013-02-10 02:30:00,39.8,18.0,30.07,NNE,31,0.0,1.0,41,0.00,,,0.00,Wunderground v.1.15,2013-02-10 07:30:00,
2013-02-10 02:40:00,39.3,18.1,30.08,NNE,31,0.0,1.0,42,0.00,,,0.00,Wunderground v.1.15,2013-02-10 07:40:00,
2013-02-10 02:50:00,39.1,17.4,30.07,NNE,31,0.0,1.0,41,0.00,,,0.00,Wunderground v.1.15,2013-02-10 07:50:00,
2013-02-10 03:00:00,38.8,16.5,30.07,NNE,31,0.0,0.0,40,0.00,,,0.00,Wunderground v.1.15,2013-02-10 08:00:00,
2013-02-10 03:10:00,38.6,15.1,30.07,NNE,31,0.0,0.0,38,0.00,,,0.00,Wunderground v.1.15,2013-02-10 08:10:00,
2013-02-10 03:15:00,38.5,15.1,30.07,NNE,31,0.0,0.0,38,0.00,,,0.00,Wunderground v.1.15,2013-02-10 08:15:00,
2013-02-10 03:25:00,38.3,15.5,30.08,NNE,31,0.0,0.0,39,0.00,,,0.00,Wunderground v.1.15,2013-02-10 08:25:00,
2013-02-10 03:30:00,38.3,16.1,30.07,NNE,31,0.0,0.0,40,0.00,,,0.00,Wunderground v.1.15,2013-02-10 08:30:00,
2013-02-10 03:40:00,38.0,15.2,30.07,NNE,31,0.0,0.0,39,0.00,,,0.00,Wunderground v.1.15,2013-02-10 08:40:00,
2013-02-10 03:50:00,37.9,15.1,30.06,NNE,31,0.0,0.0,39,0.00,,,0.00,Wunderground v.1.15,2013-02-10 08:50:00,
2013-02-10 04:00:00,37.8,15.6,30.06,NNE,31,0.0,0.0,40,0.00,,,0.00,Wunderground v.1.15,2013-02-10 09:00:00,
2013-02-10 04:10:00,37.6,14.2,30.07,NNE,31,0.0,0.0,38,0.00,,,0.00,Wunderground v.1.15,2013-02-10 09:10:00,
2013-02-10 04:20:00,37.5,15.3,30.06,NNE,31,0.0,0.0,40,0.00,,,0.00,Wunderground v.1.15,2013-02-10 09:20:00,
2013-02-10 04:30:00,37.5,14.2,30.07,NNE,31,0.0,0.0,38,0.00,,,0.00,Wunderground v.1.15,2013-02-10 09:30:00,
2013-02-10 04:40:00,37.3,15.7,30.08,NNE,31,0.0,0.0,41,0.00,,,0.00,Wunderground v.1.15,2013-02-10 09:40:00,
2013-02-10 04:45:00,37.3,15.2,30.08,NNE,31,0.0,0.0,40,0.00,,,0.00,Wunderground v.1.15,2013-02-10 09:45:00,
2013-02-10 04:55:00,37.2,14.5,30.09,NNE,31,0.0,0.0,39,0.00,,,0.00,Wunderground v.1.15,2013-02-10 09:55:00,
2013-02-10 05:05:00,37.5,15.9,30.11,NNE,31,0.0,0.0,41,0.00,,,0.00,Wunderground v.1.15,2013-02-10 10:05:00,
2013-02-10 05:10:00,37.5,14.8,30.11,NNE,31,0.0,0.0,39,0.00,,,0.00,Wunderground v.1.15,2013-02-10 10:10:00,
2013-02-10 05:20:00,37.5,14.2,30.10,NNE,31,0.0,0.0,38,0.00,,,0.00,Wunderground v.1.15,2013-02-10 10:20:00,
2013-02-10 05:30:00,37.3,14.0,30.11,NNE,31,0.0,0.0,38,0.00,,,0.00,Wunderground v.1.15,2013-02-10 10:30:00,
2013-02-10 05:40:00,37.2,14.5,30.12,NNE,31,0.0,0.0,39,0.00,,,0.00,Wunderground v.1.15,2013-02-10 10:40:00,
2013-02-10 05:50:00,36.9,14.8,30.11,NNE,31,0.0,0.0,40,0.00,,,0.00,Wunderground v.1.15,2013-02-10 10:50:00,
2013-02-10 06:00:00,36.9,13.6,30.11,NNE,31,0.0,0.0,38,0.00,,,0.00,Wunderground v.1.15,2013-02-10 11:00:00,
2013-02-10 06:10:00,37.0,14.3,30.12,NNE,31,0.0,0.0,39,0.00,,,0.00,Wunderground v.1.15,2013-02-10 11:10:00,
2013-02-10 06:15:00,37.0,15.5,30.13,NNE,31,0.0,0.0,41,0.00,,,0.00,Wunderground v.1.15,2013-02-10 11:15:00,
2013-02-10 06:20:00,36.9,14.8,30.13,NNE,31,0.0,0.0,40,0.00,,,0.00,Wunderground v.1.15,2013-02-10 11:20:00,
2013-02-10 06:30:00,36.6,15.6,30.14,NNE,31,0.0,0.0,42,0.00,,,0.00,Wunderground v.1.15,2013-02-10 11:30:00,
2013-02-10 06:40:00,36.3,15.4,30.14,NNE,31,0.0,0.0,42,0.00,,,0.00,Wunderground v.1.15,2013-02-10 11:40:00,
2013-02-10 06:50:00,36.0,14.5,30.13,NNE,31,0.0,0.0,41,0.00,,,0.00,Wunderground v.1.15,2013-02-10 11:50:00,
2013-02-10 07:00:00,35.8,14.4,30.13,NNE,31,0.0,0.0,41,0.00,,,0.00,Wunderground v.1.15,2013-02-10 12:00:00,
2013-02-10 07:10:00,35.5,14.6,30.13,NNE,31,0.0,0.0,42,0.00,,,0.00,Wunderground v.1.15,2013-02-10 12:10:00,
2013-02-10 07:20:00,35.2,14.4,30.14,NNE,31,0.0,0.0,42,0.00,,,0.00,Wunderground v.1.15,2013-02-10 12:20:00,
2013-02-10 07:25:00,35.2,14.9,30.14,NNE,31,0.0,0.0,43,0.00,,,0.00,Wunderground v.1.15,2013-02-10 12:25:00,
2013-02-10 07:35:00,35.2,14.4,30.14,NNE,31,0.0,0.0,42,0.00,,,0.00,Wunderground v.1.15,2013-02-10 12:35:00,
2013-02-10 07:45:00,35.2,16.0,30.15,NNE,31,0.0,0.0,45,0.00,,,0.00,Wunderground v.1.15,2013-02-10 12:45:00,
2013-02-10 07:50:00,35.2,16.5,30.15,NNE,31,0.0,0.0,46,0.00,,,0.00,Wunderground v.1.15,2013-02-10 12:50:00,
2013-02-10 08:00:00,35.5,16.7,30.14,NNE,31,0.0,0.0,46,0.00,,,0.00,Wunderground v.1.15,2013-02-10 13:00:00,
2013-02-10 08:10:00,35.9,16.1,30.15,NNE,31,0.0,0.0,44,0.00,,,0.00,Wunderground v.1.15,2013-02-10 13:10:00,
2013-02-10 08:20:00,36.3,15.4,30.15,NNE,31,0.0,0.0,42,0.00,,,0.00,Wunderground v.1.15,2013-02-10 13:20:00,
2013-02-10 08:30:00,36.9,15.9,30.14,NNE,31,0.0,0.0,42,0.00,,,0.00,Wunderground v.1.15,2013-02-10 13:30:00,
2013-02-10 08:35:00,37.0,15.5,30.15,NNE,31,0.0,0.0,41,0.00,,,0.00,Wunderground v.1.15,2013-02-10 13:35:00,
2013-02-10 08:45:00,37.5,15.9,30.14,NNE,31,1.0,1.0,41,0.00,,,0.00,Wunderground v.1.15,2013-02-10 13:45:00,
2013-02-10 08:50:00,37.8,13.8,30.14,NNE,31,1.0,1.0,37,0.00,,,0.00,Wunderground v.1.15,2013-02-10 13:50:00,
2013-02-10 09:00:00,38.2,15.4,30.14,NNE,31,0.0,0.0,39,0.00,,,0.00,Wunderground v.1.15,2013-02-10 14:00:00,
2013-02-10 09:05:00,38.3,13.6,30.15,NNE,31,0.0,0.0,36,0.00,,,0.00,Wunderground v.1.15,2013-02-10 14:05:00,
2013-02-10 09:15:00,38.6,15.1,30.14,NNE,31,0.0,0.0,38,0.00,,,0.00,Wunderground v.1.15,2013-02-10 14:15:00,
2013-02-10 09:25:00,39.1,15.0,30.15,NNE,31,0.0,1.0,37,0.00,,,0.00,Wunderground v.1.15,2013-02-10 14:25:00,
2013-02-10 09:30:00,39.2,15.7,30.15,NNE,31,0.0,0.0,38,0.00,,,0.00,Wunderground v.1.15,2013-02-10 14:30:00,
2013-02-10 09:40:00,39.5,16.0,30.14,NNE,31,0.0,0.0,38,0.00,,,0.00,Wunderground v.1.15,2013-02-10 14:40:00,
2013-02-10 09:50:00,39.5,16.0,30.15,NE,51,0.0,0.0,38,0.00,,,0.00,Wunderground v.1.15,2013-02-10 14:50:00,
2013-02-10 10:00:00,39.6,16.6,30.16,West,273,0.0,0.0,39,0.00,,,0.00,Wunderground v.1.15,2013-02-10 15:00:00,
2013-02-10 10:10:00,40.1,16.5,30.16,WNW,292,0.0,0.0,38,0.00,,,0.00,Wunderground v.1.15,2013-02-10 15:10:00,
2013-02-10 10:20:00,40.6,18.1,30.16,NNW,340,1.0,1.0,40,0.00,,,0.00,Wunderground v.1.15,2013-02-10 15:20:00,
2013-02-10 10:25:00,40.9,16.6,30.16,NNW,345,0.0,1.0,37,0.00,,,0.00,Wunderground v.1.15,2013-02-10 15:25:00,
2013-02-10 10:30:00,41.3,16.9,30.15,North,5,0.0,1.0,37,0.00,,,0.00,Wunderground v.1.15,2013-02-10 15:30:00,
2013-02-10 10:40:00,41.3,16.3,30.16,NW,306,1.0,1.0,36,0.00,,,0.00,Wunderground v.1.15,2013-02-10 15:40:00,
2013-02-10 10:50:00,41.9,16.9,30.16,WSW,257,1.0,1.0,36,0.00,,,0.00,Wunderground v.1.15,2013-02-10 15:50:00,
2013-02-10 11:00:00,42.1,18.3,30.15,NNE,26,1.0,1.0,38,0.00,,,0.00,Wunderground v.1.15,2013-02-10 16:00:00,
2013-02-10 11:10:00,42.3,18.5,30.14,South,171,0.0,0.0,38,0.00,,,0.00,Wunderground v.1.15,2013-02-10 16:10:00,
2013-02-10 11:20:00,42.3,17.2,30.15,NE,46,1.0,5.0,36,0.00,,,0.00,Wunderground v.1.15,2013-02-10 16:20:00,
2013-02-10 11:30:00,42.3,19.1,30.15,WNW,284,1.0,2.0,39,0.00,,,0.00,Wunderground v.1.15,2013-02-10 16:30:00,
2013-02-10 11:35:00,42.6,19.3,30.15,NNE,15,1.0,2.0,39,0.00,,,0.00,Wunderground v.1.15,2013-02-10 16:35:00,
2013-02-10 11:45:00,43.3,18.1,30.13,WSW,248,1.0,3.0,36,0.00,,,0.00,Wunderground v.1.15,2013-02-10 16:45:00,
2013-02-10 11:55:00,43.1,18.6,30.12,West,273,1.0,1.0,37,0.00,,,0.00,Wunderground v.1.15,2013-02-10 16:55:00,
2013-02-10 12:00:00,43.2,19.3,30.11,WNW,286,1.0,1.0,38,0.00,,,0.00,Wunderground v.1.15,2013-02-10 17:00:00,
2013-02-10 12:10:00,43.6,19.0,30.12,WNW,290,0.0,0.0,37,0.00,,,0.00,Wunderground v.1.15,2013-02-10 17:10:00,
2013-02-10 12:15:00,43.8,17.9,30.12,NE,51,1.0,1.0,35,0.00,,,0.00,Wunderground v.1.15,2013-02-10 17:15:00,
2013-02-10 12:25:00,43.3,18.7,30.12,West,277,1.0,1.0,37,0.00,,,0.00,Wunderground v.1.15,2013-02-10 17:25:00,
2013-02-10 12:30:00,43.3,20.0,30.12,WNW,300,0.0,0.0,39,0.00,,,0.00,Wunderground v.1.15,2013-02-10 17:30:00,
2013-02-10 12:40:00,43.5,19.5,30.10,NW,311,0.0,0.0,38,0.00,,,0.00,Wunderground v.1.15,2013-02-10 17:40:00,
2013-02-10 12:45:00,44.1,20.7,30.08,NNW,336,0.0,1.0,39,0.00,,,0.00,Wunderground v.1.15,2013-02-10 17:45:00,
2013-02-10 12:50:00,44.5,18.5,30.08,North,5,1.0,2.0,35,0.00,,,0.00,Wunderground v.1.15,2013-02-10 17:50:00,
2013-02-10 13:00:00,45.5,18.0,30.06,NW,312,1.0,1.0,33,0.00,,,0.00,Wunderground v.1.15,2013-02-10 18:00:00,
2013-02-10 13:10:00,46.2,19.3,30.05,North,360,1.0,1.0,34,0.00,,,0.00,Wunderground v.1.15,2013-02-10 18:10:00,
2013-02-10 13:20:00,47.3,21.0,30.05,NNE,13,1.0,1.0,35,0.00,,,0.00,Wunderground v.1.15,2013-02-10 18:20:00,
2013-02-10 13:30:00,46.8,17.7,30.04,West,281,2.0,3.0,31,0.00,,,0.00,Wunderground v.1.15,2013-02-10 18:30:00,
2013-02-10 13:40:00,47.0,19.3,30.03,North,355,1.0,1.0,33,0.00,,,0.00,Wunderground v.1.15,2013-02-10 18:40:00,
2013-02-10 13:50:00,47.7,23.3,30.01,NNE,30,1.0,1.0,38,0.00,,,0.00,Wunderground v.1.15,2013-02-10 18:50:00,
2013-02-10 14:00:00,48.2,23.7,30.02,WNW,284,1.0,2.0,38,0.00,,,0.00,Wunderground v.1.15,2013-02-10 19:00:00,
2013-02-10 14:10:00,47.7,25.1,30.03,ENE,74,2.0,2.0,41,0.00,,,0.00,Wunderground v.1.15,2013-02-10 19:10:00,
2013-02-10 14:15:00,47.7,25.1,30.02,NNE,24,1.0,2.0,41,0.00,,,0.00,Wunderground v.1.15,2013-02-10 19:15:00,
2013-02-10 14:25:00,47.3,24.8,30.03,West,275,1.0,1.0,41,0.00,,,0.00,Wunderground v.1.15,2013-02-10 19:25:00,
2013-02-10 14:35:00,46.7,24.2,30.03,North,9,1.0,3.0,41,0.00,,,0.00,Wunderground v.1.15,2013-02-10 19:35:00,
2013-02-10 14:40:00,46.4,25.1,30.03,North,9,1.0,1.0,43,0.00,,,0.00,Wunderground v.1.15,2013-02-10 19:40:00,
2013-02-10 14:50:00,45.8,25.1,30.02,North,5,1.0,1.0,44,0.00,,,0.00,Wunderground v.1.15,2013-02-10 19:50:00,
2013-02-10 15:00:00,45.7,25.0,30.02,West,276,0.0,4.0,44,0.00,,,0.00,Wunderground v.1.15,2013-02-10 20:00:00,
2013-02-10 15:10:00,45.4,24.7,30.01,North,5,1.0,1.0,44,0.00,,,0.00,Wunderground v.1.15,2013-02-10 20:10:00,
2013-02-10 15:20:00,45.5,25.4,30.02,NNE,32,1.0,1.0,45,0.00,,,0.00,Wunderground v.1.15,2013-02-10 20:20:00,
2013-02-10 15:30:00,45.7,24.5,30.00,NNW,335,0.0,0.0,43,0.00,,,0.00,Wunderground v.1.15,2013-02-10 20:30:00,
2013-02-10 15:40:00,45.5,24.3,30.02,NNW,344,1.0,1.0,43,0.00,,,0.00,Wunderground v.1.15,2013-02-10 20:40:00,
2013-02-10 15:50:00,45.5,24.3,30.02,WNW,282,0.0,0.0,43,0.00,,,0.00,Wunderground v.1.15,2013-02-10 20:50:00,
2013-02-10 16:00:00,45.5,24.3,30.02,NNW,330,0.0,0.0,43,0.00,,,0.00,Wunderground v.1.15,2013-02-10 21:00:00,
2013-02-10 16:05:00,45.5,24.8,30.01,West,263,0.0,0.0,44,0.00,,,0.00,Wunderground v.1.15,2013-02-10 21:05:00,
2013-02-10 16:15:00,45.2,24.6,30.01,NW,313,0.0,0.0,44,0.00,,,0.00,Wunderground v.1.15,2013-02-10 21:15:00,
2013-02-10 16:25:00,45.1,25.5,30.00,NNW,333,0.0,4.0,46,0.00,,,0.00,Wunderground v.1.15,2013-02-10 21:25:00,
2013-02-10 16:30:00,44.9,26.4,30.00,NNW,333,0.0,0.0,48,0.00,,,0.00,Wunderground v.1.15,2013-02-10 21:30:00,
2013-02-10 16:40:00,44.9,26.9,29.99,NNE,20,0.0,0.0,49,0.00,,,0.00,Wunderground v.1.15,2013-02-10 21:40:00,
2013-02-10 16:50:00,44.6,26.6,29.99,South,172,0.0,1.0,49,0.00,,,0.00,Wunderground v.1.15,2013-02-10 21:50:00,
2013-02-10 17:00:00,44.5,27.5,29.99,SW,221,0.0,0.0,51,0.00,,,0.00,Wunderground v.1.15,2013-02-10 22:00:00,
2013-02-10 17:10:00,44.5,28.9,30.01,West,261,0.0,0.0,54,0.00,,,0.00,Wunderground v.1.15,2013-02-10 22:10:00,
2013-02-10 17:20:00,44.1,30.7,30.01,West,261,0.0,0.0,59,0.00,,,0.00,Wunderground v.1.15,2013-02-10 22:20:00,
2013-02-10 17:30:00,43.5,32.1,30.01,West,261,0.0,0.0,64,0.00,,,0.00,Wunderground v.1.15,2013-02-10 22:30:00,
2013-02-10 17:40:00,42.9,34.5,30.01,West,261,0.0,0.0,72,0.10,,,0.02,Wunderground v.1.15,2013-02-10 22:40:00,
2013-02-10 17:45:00,42.3,35.6,30.01,West,261,0.0,0.0,77,0.14,,,0.03,Wunderground v.1.15,2013-02-10 22:45:00,
2013-02-10 17:50:00,42.1,36.4,30.00,West,261,0.0,0.0,80,0.11,,,0.04,Wunderground v.1.15,2013-02-10 22:50:00,
2013-02-10 18:00:00,41.6,36.5,30.00,West,261,0.0,0.0,82,0.10,,,0.06,Wunderground v.1.15,2013-02-10 23:00:00,
2013-02-10 18:10:00,41.2,37.0,30.02,West,261,0.0,0.0,85,0.13,,,0.08,Wunderground v.1.15,2013-02-10 23:10:00,
2013-02-10 18:20:00,40.9,37.0,30.01,West,261,0.0,0.0,86,0.10,,,0.10,Wunderground v.1.15,2013-02-10 23:20:00,
2013-02-10 18:30:00,40.6,37.3,30.02,West,261,0.0,0.0,88,0.19,,,0.13,Wunderground v.1.15,2013-02-10 23:30:00,
2013-02-10 18:40:00,40.5,37.5,30.03,West,261,0.0,0.0,89,0.14,,,0.15,Wunderground v.1.15,2013-02-10 23:40:00,
2013-02-10 18:50:00,40.1,37.1,30.03,West,261,0.0,0.0,89,0.21,,,0.19,Wunderground v.1.15,2013-02-10 23:50:00,
2013-02-10 18:55:00,39.9,36.9,30.03,West,261,0.0,0.0,89,0.27,,,0.21,Wunderground v.1.15,2013-02-10 23:55:00,
2013-02-10 19:05:00,39.8,37.1,30.02,West,261,0.0,0.0,90,0.23,,,0.25,Wunderground v.1.15,2013-02-11 00:05:00,
2013-02-10 19:10:00,39.9,37.5,30.01,West,261,0.0,0.0,91,0.15,,,0.27,Wunderground v.1.15,2013-02-11 00:10:00,
2013-02-10 19:20:00,40.1,37.7,30.02,West,261,0.0,0.0,91,0.11,,,0.28,Wunderground v.1.15,2013-02-11 00:20:00,
2013-02-10 19:30:00,40.2,38.1,30.04,West,261,0.0,0.0,92,0.15,,,0.31,Wunderground v.1.15,2013-02-11 00:30:00,
2013-02-10 19:40:00,40.1,38.0,30.04,West,261,0.0,0.0,92,0.19,,,0.33,Wunderground v.1.15,2013-02-11 00:40:00,
2013-02-10 19:50:00,39.9,37.8,30.04,West,261,0.0,0.0,92,0.21,,,0.36,Wunderground v.1.15,2013-02-11 00:50:00,
2013-02-10 20:00:00,39.9,37.8,30.04,West,261,0.0,1.0,92,0.12,,,0.38,Wunderground v.1.15,2013-02-11 01:00:00,
2013-02-10 20:05:00,39.8,37.9,30.04,NNW,331,1.0,1.0,93,0.14,,,0.39,Wunderground v.1.15,2013-02-11 01:05:00,
2013-02-10 20:15:00,39.9,38.0,30.06,NNW,331,0.0,0.0,93,0.14,,,0.41,Wunderground v.1.15,2013-02-11 01:15:00,
2013-02-10 20:25:00,39.9,38.0,30.06,NNW,331,0.0,1.0,93,0.16,,,0.44,Wunderground v.1.15,2013-02-11 01:25:00,
2013-02-10 20:30:00,39.8,37.9,30.06,NNW,331,0.0,0.0,93,0.20,,,0.46,Wunderground v.1.15,2013-02-11 01:30:00,
2013-02-10 20:40:00,39.8,38.2,30.06,NNW,331,0.0,0.0,94,0.11,,,0.48,Wunderground v.1.15,2013-02-11 01:40:00,
2013-02-10 20:50:00,40.2,38.6,30.07,NNW,331,0.0,0.0,94,0.09,,,0.49,Wunderground v.1.15,2013-02-11 01:50:00,
2013-02-10 20:55:00,40.2,38.6,30.06,NNW,331,0.0,0.0,94,0.10,,,0.50,Wunderground v.1.15,2013-02-11 01:55:00,
2013-02-10 21:00:00,40.1,38.5,30.06,NNW,331,0.0,0.0,94,0.07,,,0.51,Wunderground v.1.15,2013-02-11 02:00:00,
2013-02-10 21:10:00,40.1,38.5,30.05,NNW,331,0.0,0.0,94,0.07,,,0.52,Wunderground v.1.15,2013-02-11 02:10:00,
2013-02-10 21:20:00,39.9,38.3,30.04,NNW,331,0.0,0.0,94,0.09,,,0.53,Wunderground v.1.15,2013-02-11 02:20:00,
2013-02-10 21:30:00,39.8,38.5,30.02,NNW,331,1.0,2.0,95,0.06,,,0.54,Wunderground v.1.15,2013-02-11 02:30:00,
2013-02-10 21:40:00,39.8,38.5,30.02,North,360,0.0,0.0,95,0.04,,,0.54,Wunderground v.1.15,2013-02-11 02:40:00,
2013-02-10 21:50:00,40.1,38.8,30.02,North,360,0.0,0.0,95,0.00,,,0.55,Wunderground v.1.15,2013-02-11 02:50:00,
2013-02-10 21:55:00,40.1,38.8,30.02,North,360,0.0,0.0,95,0.00,,,0.55,Wunderground v.1.15,2013-02-11 02:55:00,
2013-02-10 22:05:00,40.1,38.8,30.01,North,360,0.0,0.0,95,0.00,,,0.56,Wunderground v.1.15,2013-02-11 03:05:00,
2013-02-10 22:15:00,40.6,39.5,30.02,North,360,0.0,0.0,96,0.06,,,0.57,Wunderground v.1.15,2013-02-11 03:15:00,
2013-02-10 22:20:00,40.6,39.5,30.01,North,360,0.0,0.0,96,0.13,,,0.58,Wunderground v.1.15,2013-02-11 03:20:00,
2013-02-10 22:30:00,40.9,39.8,30.01,North,360,0.0,0.0,96,0.07,,,0.59,Wunderground v.1.15,2013-02-11 03:30:00,
2013-02-10 22:40:00,40.9,39.8,29.99,North,360,0.0,0.0,96,0.08,,,0.61,Wunderground v.1.15,2013-02-11 03:40:00,
2013-02-10 22:45:00,40.9,39.8,29.98,North,360,0.0,0.0,96,0.08,,,0.61,Wunderground v.1.15,2013-02-11 03:45:00,
2013-02-10 22:55:00,40.9,39.8,29.96,North,360,0.0,0.0,96,0.05,,,0.62,Wunderground v.1.15,2013-02-11 03:55:00,
2013-02-10 23:00:00,41.1,40.0,29.96,North,360,0.0,0.0,96,0.06,,,0.63,Wunderground v.1.15,2013-02-11 04:00:00,
2013-02-10 23:10:00,42.2,41.1,29.94,WSW,237,0.0,0.0,96,0.05,,,0.63,Wunderground v.1.15,2013-02-11 04:10:00,
2013-02-10 23:20:00,42.5,41.4,29.93,NW,308,0.0,0.0,96,0.05,,,0.64,Wunderground v.1.15,2013-02-11 04:20:00,
2013-02-10 23:30:00,43.2,42.4,29.93,ENE,69,0.0,0.0,97,0.04,,,0.65,Wunderground v.1.15,2013-02-11 04:30:00,
2013-02-10 23:40:00,43.6,42.8,29.92,NNE,25,1.0,2.0,97,0.04,,,0.65,Wunderground v.1.15,2013-02-11 04:40:00,
2013-02-10 23:45:00,43.8,43.0,29.92,NNE,16,1.0,2.0,97,0.00,,,0.65,Wunderground v.1.15,2013-02-11 04:45:00,
2013-02-10 23:50:00,43.9,43.1,29.92,WNW,297,1.0,1.0,97,0.00,,,0.65,Wunderground v.1.15,2013-02-11 04:50:00,